Home > Products > Valid Products > MTR

000
SAUS45 KREV 210157
MTRDRA
METAR KDRA 210152Z AUTO 05004KT 10SM CLR 11/M11 A2995 RMK AO2 SLP131
T01061111 $





000
SAUS45 KREV 210057
MTRDRA
METAR KDRA 210052Z AUTO 00000KT 10SM CLR 13/M11 A2995 RMK AO2 SLP131
T01281111





000
SAUS45 KREV 202357
MTRDRA
METAR KDRA 202352Z AUTO 25003KT 10SM CLR 15/M11 A2995 RMK AO2 SLP126
T01501106 10161 20139 56020





000
SAUS45 KREV 202257
MTRDRA
METAR KDRA 202252Z AUTO 00000KT 10SM CLR 16/M11 A2997 RMK AO2 SLP130
T01561111





000
SAUS45 KREV 202157
MTRDRA
METAR KDRA 202152Z AUTO 22004KT 10SM CLR 16/M11 A2999 RMK AO2 SLP137
T01611111





000
SAUS45 KREV 202057
MTRDRA
METAR KDRA 202052Z AUTO 25006KT 10SM CLR 16/M11 A3001 RMK AO2 SLP146
T01561106





000
SAUS45 KREV 201957
MTRDRA
METAR KDRA 201952Z AUTO 23006KT 10SM CLR 15/M11 A3004 RMK AO2 SLP154
T01501111





000
SAUS45 KREV 201857
MTRDRA
METAR KDRA 201852Z AUTO 00000KT 10SM 15/M13 A3006 RMK AO2 SLP163
T01501128 $





000
SAUS45 KREV 201657
MTRDRA
METAR KDRA 201652Z AUTO 13005KT 10SM CLR 09/M14 A3009 RMK AO2 SLP177
T00891139





000
SAUS45 KREV 201557
MTRDRA
METAR KDRA 201552Z AUTO 13003KT 10SM CLR 04/M14 A3011 RMK AO2 SLP188
T00441139





000
SAUS45 KREV 201457
MTRDRA
METAR KDRA 201452Z AUTO 34003KT 10SM CLR 03/M13 A3010 RMK AO2 SLP184
T00281128 51006 $





000
SAUS45 KREV 201257
MTRDRA
METAR KDRA 201252Z AUTO 00000KT 10SM CLR 01/M13 A3009 RMK AO2 SLP179
T00111133 $





000
SAUS45 KREV 201157
MTRDRA
METAR KDRA 201152Z AUTO 00000KT 10SM CLR 02/M14 A3008 RMK AO2 SLP174
T00171139 10078 20011 58004 $





000
SAUS45 KREV 201057
MTRDRA
METAR KDRA 201052Z AUTO 33005KT 10SM CLR 02/M14 A3009 RMK AO2 SLP176
T00171139 $





000
SAUS45 KREV 200957
MTRDRA
METAR KDRA 200952Z AUTO 00000KT 10SM CLR 03/M14 A3010 RMK AO2 SLP178
T00331139 $





000
SAUS45 KREV 200957
MTRDRA
METAR KDRA 200952Z AUTO 00000KT 10SM CLR 03/M14 A3010 RMK AO2 SLP178
T00331139 $





000
SAUS45 KREV 200857
MTRDRA
METAR KDRA 200852Z AUTO 00000KT 10SM CLR 04/M14 A3009 RMK AO2 SLP175
T00391139 55002 $





000
SAUS45 KREV 200758
MTRDRA
METAR KDRA 200752Z AUTO 36004KT 10SM CLR 03/M13 A3009 RMK AO2 SLP176
T00331133 401560028 $





000
SAUS45 KREV 200657
MTRDRA
METAR KDRA 200652Z AUTO 10004KT 10SM CLR 04/M14 A3010 RMK AO2 SLP179
T00441139 $





000
SAUS45 KREV 200557
MTRDRA
METAR KDRA 200552Z AUTO VRB03KT 10SM CLR 07/M13 A3010 RMK AO2 SLP177
T00721128 10139 20050 51004 $





000
SAUS45 KREV 200457
MTRDRA
METAR KDRA 200452Z AUTO 07005KT 10SM CLR 08/M13 A3010 RMK AO2 SLP179
T00831128 $





000
SAUS45 KREV 200357
MTRDRA
METAR KDRA 200352Z AUTO 05006KT 10SM CLR 06/M13 A3010 RMK AO2 SLP184
T00611133





000
SAUS45 KREV 200357
MTRDRA
METAR KDRA 200352Z AUTO 05006KT 10SM CLR 06/M13 A3010 RMK AO2 SLP184
T00611133





000
SAUS45 KREV 200257
MTRDRA
METAR KDRA 200252Z AUTO 06007KT 10SM CLR 09/M12 A3009 RMK AO2 SLP179
T00941122 53006





000
SAUS45 KREV 200257
MTRDRA
METAR KDRA 200252Z AUTO 06007KT 10SM CLR 09/M12 A3009 RMK AO2 SLP179
T00941122 53006





000
SAUS45 KREV 200157
MTRDRA
METAR KDRA 200152Z AUTO 12010KT 10SM CLR 10/M12 A3007 RMK AO2 SLP170
T01001122





000
SAUS45 KREV 200057
MTRDRA
METAR KDRA 200052Z AUTO 12009KT 10SM CLR 12/M13 A3006 RMK AO2 SLP168
T01171133





000
SAUS45 KREV 192257
MTRDRA
METAR KDRA 192252Z AUTO 11011KT 10SM CLR 15/M14 A3007 RMK AO2 SLP166
T01501144





000
SAUS45 KREV 192157
MTRDRA
METAR KDRA 192152Z AUTO 12013KT 10SM CLR 15/M14 A3008 RMK AO2 SLP168
T01501144





000
SAUS45 KREV 192057
MTRDRA
METAR KDRA 192052Z AUTO 12008KT 10SM CLR 14/M13 A3009 RMK AO2 SLP173
T01441128 58026





000
SAUS45 KREV 191957
MTRDRA
METAR KDRA 191952Z AUTO 12007KT 10SM CLR 13/M13 A3013 RMK AO2 SLP186
T01281128





000
SAUS45 KREV 191857
MTRDRA
METAR KDRA 191852Z AUTO 09004KT 10SM SCT110 12/M13 A3016 RMK AO2
SLP197 T01221128





000
SAUS45 KREV 191757
MTRDRA
METAR KDRA 191752Z AUTO 12008KT 10SM FEW120 11/M12 A3018 RMK AO2
SLP206 T01111122 10111 20028 58001





000
SAUS45 KREV 191657
MTRDRA
METAR KDRA 191652Z AUTO 34004KT 10SM CLR 09/M13 A3019 RMK AO2 SLP209
T00891133





000
SAUS45 KREV 191556
MTRDRA
METAR KDRA 191552Z AUTO 00000KT 10SM CLR 07/M12 A3019 RMK AO2 SLP212
T00721122 $





000
SAUS45 KREV 191457
MTRDRA
METAR KDRA 191452Z AUTO 33006KT 10SM CLR 04/M14 A3018 RMK AO2 SLP212
T00391139 53003 $





000
SAUS45 KREV 191257
MTRDRA
METAR KDRA 191252Z AUTO 33004KT 10SM CLR 03/M14 A3016 RMK AO2 SLP202
T00331139 $





000
SAUS45 KREV 191157
MTRDRA
METAR KDRA 191152Z AUTO 33005KT 10SM CLR 04/M13 A3017 RMK AO2 SLP201
T00441133 10089 20033 58009 $





000
SAUS45 KREV 191057
MTRDRA
METAR KDRA 191052Z AUTO 36004KT 10SM CLR 03/M14 A3018 RMK AO2 SLP205
T00331144 $





000
SAUS45 KREV 190957
MTRDRA
METAR KDRA 190952Z AUTO 34005KT 10SM CLR 04/M14 A3019 RMK AO2 SLP208
T00441139 $





000
SAUS45 KREV 190957
MTRDRA
METAR KDRA 190952Z AUTO 34005KT 10SM CLR 04/M14 A3019 RMK AO2 SLP208
T00441139 $





000
SAUS45 KREV 190857
MTRDRA
METAR KDRA 190852Z AUTO 08004KT 10SM CLR 07/M13 A3020 RMK AO2 SLP207
T00671128 58005 $





000
SAUS45 KREV 190756
MTRDRA
METAR KDRA 190752Z AUTO 10003KT 10SM CLR 06/M14 A3021 RMK AO2 SLP215
T00561139 401780006 $





000
SAUS45 KREV 190657
MTRDRA
METAR KDRA 190652Z AUTO 00000KT 10SM CLR 07/M14 A3022 RMK AO2 SLP214
T00721139





000
SAUS45 KREV 190557
MTRDRA
METAR KDRA 190552Z AUTO 00000KT 10SM CLR 07/M14 A3022 RMK AO2 SLP217
T00671139 10150 20056 58000





000
SAUS45 KREV 190457
MTRDRA
METAR KDRA 190452Z AUTO 26003KT 10SM CLR 08/M14 A3023 RMK AO2 SLP220
T00781144





000
SAUS45 KREV 190357
MTRDRA
METAR KDRA 190352Z AUTO 01006KT 10SM CLR 08/M14 A3022 RMK AO2 SLP223
T00781139





000
SAUS45 KREV 190257
MTRDRA
METAR KDRA 190252Z AUTO 08009KT 10SM CLR 09/M13 A3022 RMK AO2 SLP225
T00941128 55000





000
SAUS45 KREV 190157
MTRDRA
METAR KDRA 190152Z AUTO 07006KT 10SM CLR 10/M13 A3022 RMK AO2 SLP223
T01001133





000
SAUS45 KREV 190057
MTRDRA
METAR KDRA 190052Z AUTO 17003KT 10SM CLR 13/M15 A3021 RMK AO2 SLP217
T01281150





000
SAUS45 KREV 182357
MTRDRA
METAR KDRA 182352Z AUTO 23004KT 10SM CLR 15/M14 A3022 RMK AO2 SLP215
T01501144 10178 20128 56010





000
SAUS45 KREV 182257
MTRDRA
METAR KDRA 182252Z AUTO 20004KT 10SM CLR 17/M14 A3023 RMK AO2 SLP220
T01671139





000
SAUS45 KREV 182157
MTRDRA
METAR KDRA 182152Z AUTO VRB03KT 10SM CLR 17/M13 A3023 RMK AO2 SLP221
T01671133





000
SAUS45 KREV 182157
MTRDRA
METAR KDRA 182152Z AUTO VRB03KT 10SM CLR 17/M13 A3023 RMK AO2 SLP221
T01671133





000
SAUS45 KREV 182057
MTRDRA
METAR KDRA 182052Z AUTO VRB03KT 10SM CLR 17/M13 A3025 RMK AO2 SLP226
T01671133 58023





000
SAUS45 KREV 181957
MTRDRA
METAR KDRA 181952Z AUTO 14009KT 10SM CLR 16/M13 A3028 RMK AO2 SLP238
T01561128





000
SAUS45 KREV 181857
MTRDRA
METAR KDRA 181852Z AUTO 13008KT 10SM CLR 14/M12 A3031 RMK AO2 SLP245
T01441122





000
SAUS45 KREV 181757
MTRDRA
METAR KDRA 181752Z AUTO VRB03KT 10SM CLR 13/M12 A3033 RMK AO2 SLP258
T01331122 10133 20022 51006





000
SAUS45 KREV 181657
MTRDRA
METAR KDRA 181652Z AUTO 04010KT 10SM CLR 12/M12 A3033 RMK AO2 SLP257
T01171122





000
SAUS45 KREV 181557
MTRDRA
METAR KDRA 181552Z AUTO VRB05KT 10SM CLR 08/M13 A3032 RMK AO2 SLP258
T00781128





000
SAUS45 KREV 181457
MTRDRA
METAR KDRA 181452Z AUTO 09005KT 10SM CLR 03/M13 A3031 RMK AO2 SLP257
T00331133 53013





000
SAUS45 KREV 181257
MTRDRA
METAR KDRA 181252Z AUTO 01005KT 10SM CLR 06/M13 A3028 RMK AO2 SLP240
T00611133





000
SAUS45 KREV 181157
MTRDRA
METAR KDRA 181152Z AUTO 07009KT 10SM CLR 07/M14 A3027 RMK AO2 SLP233
T00671139 10089 20006 58002





000
SAUS45 KREV 181057
MTRDRA
METAR KDRA 181052Z AUTO 05010KT 10SM CLR 04/M13 A3027 RMK AO2 SLP235
T00441133





000
SAUS45 KREV 180957
MTRDRA
METAR KDRA 180952Z AUTO 07005KT 10SM CLR 04/M14 A3028 RMK AO2 SLP238
T00391139





000
SAUS45 KREV 180957
MTRDRA
METAR KDRA 180952Z AUTO 07005KT 10SM CLR 04/M14 A3028 RMK AO2 SLP238
T00391139





000
SAUS45 KREV 180857
MTRDRA
METAR KDRA 180852Z AUTO 00000KT 10SM CLR 06/M13 A3027 RMK AO2 SLP235
T00561133 58001





000
SAUS45 KREV 180757
MTRDRA
METAR KDRA 180752Z AUTO 00000KT 10SM CLR 04/M14 A3028 RMK AO2 SLP242
T00441144 401560028





000
SAUS45 KREV 180657
MTRDRA
METAR KDRA 180652Z AUTO 00000KT 10SM CLR 08/M13 A3028 RMK AO2 SLP237
T00831133





000
SAUS45 KREV 180557
MTRDRA
METAR KDRA 180552Z AUTO 08005KT 10SM CLR 04/M14 A3028 RMK AO2 SLP243
T00391144 10139 20039 51006





000
SAUS45 KREV 180457
MTRDRA
METAR KDRA 180452Z AUTO 00000KT 10SM CLR 06/M14 A3027 RMK AO2 SLP242
T00561139





000
SAUS45 KREV 180357
MTRDRA
METAR KDRA 180352Z AUTO 09004KT 10SM CLR 07/M14 A3026 RMK AO2 SLP241
T00671139





000
SAUS45 KREV 180257
MTRDRA
METAR KDRA 180252Z AUTO 08006KT 10SM CLR 09/M13 A3026 RMK AO2 SLP238
T00891133 53010





    US Dept of Commerce
    National Oceanic and Atmospheric Administration
    National Weather Service
    1325 East West Highway
    Silver Spring, MD 20910
    Page Author: NWS Internet Services Team
Disclaimer
Information Quality
Credits
Glossary
Privacy Policy
Freedom of Information Act (FOIA)
About Us
Career Opportunities